Aviation Digital Data Service (ADDS)

Output produced by METARs form (0939 UTC 07 December 2022)
found at http://aviationweather.gov/metar/data/
 
TAF LEMH 070800Z 0709/0809 34005KT 9999 SCT018 TX16/0712Z TN10/0807Z 
     BECMG 0712/0714 VRB03KT 
     BECMG 0800/0802 18010KT 
     TEMPO 0721/0806 3000 SHRA FEW010TCU